Overview Statistics Trail Chart Weather Telemetry Raw packets
 

This is the latest recevied weather packets stored in our database for station/object KJ5FA-9. If no packets are shown the sender has not sent any weather packets the latest 10 day(s).

<< 13 14 15 16 17 18 19 >>
Time Temp. Humidity Pressure Rain* Wind** Luminosity Snow
1787970628 25.56° C 72% 1018.4 hPa 0 mm - - -
1787969128 26.11° C 69% 1018 hPa 0 mm - - -
1787967628 27.22° C 64% 1017.7 hPa 0 mm - - -
1787966134 27.78° C 59% 1017.7 hPa 0 mm - - -
1787964638 28.89° C 54% 1017.4 hPa 0 mm - - -
1787963129 30° C 50% 1017.2 hPa 0 mm - - -
1787961628 30.56° C 48% 1017.2 hPa 0 mm - - -
1787960128 31.11° C 46% 1017.3 hPa 0 mm - - -
1787958632 31.67° C 46% 1017.1 hPa 0 mm - - -
1787957126 31.67° C 45% 1017.3 hPa 0 mm - - -
1787955628 32.78° C 44% 1017.2 hPa 0 mm - - -
1787954128 32.78° C 42% 1017.4 hPa 0 mm - - -
1787952628 33.33° C 42% 1017.5 hPa 0 mm - - -
1787951128 32.78° C 43% 1017.6 hPa 0 mm - - -
1787949629 33.89° C 43% 1017.7 hPa 0 mm - - -
1787948126 33.89° C 44% 1018.2 hPa 0 mm - - -
1787946630 33.33° C 46% 1018.1 hPa 0 mm - - -
1787945128 33.33° C 45% 1018.4 hPa 0 mm - - -
1787943629 31.67° C 49% 1019.1 hPa 0 mm - - -
1787942129 31.67° C 50% 1019 hPa 0 mm - - -
1787940629 32.22° C 48% 1019.4 hPa 0 mm - - -
1787939128 32.22° C 48% 1019.8 hPa 0 mm - - -
1787937628 31.67° C 50% 1019.9 hPa 0 mm - - -
1787936128 31.11° C 52% 1020 hPa 0 mm - - -
1787933128 30° C 56% 1020.2 hPa 0 mm - - -

* Rain latest hour (hover to see other rain measurements)
** Current wind speed in m/s (hover to see current wind gust speed)